| time (UTC) | temp F | wind direction | speed MPH | gust MPH | rain 1hr in | rain 24hr in | rain mn in | humidity % | barometer mb |
| 20260831102813 | 89 | 346 | 9.0 | 13.0 | 0.00 | 0.00 | 0.00 | 58 | 1016.6 |
| 20260831101813 | 90 | 323 | 6.0 | 12.0 | 0.00 | 0.00 | 0.00 | 59 | 1016.7 |
| 20260831100813 | 90 | 355 | 7.0 | 12.0 | 0.00 | 0.00 | 0.00 | 55 | 1016.6 |
| 20260831095812 | 89 | 0 | 9.0 | 13.0 | 0.00 | 0.00 | 0.00 | 57 | 1016.7 |
| 20260831094816 | 90 | 0 | 7.0 | 12.0 | 0.00 | 0.00 | 0.00 | 56 | 1016.6 |
| 20260831093817 | 90 | 350 | 7.0 | 11.0 | 0.00 | 0.00 | 0.00 | 54 | 1016.5 |
| 20260831092822 | 90 | 17 | 5.0 | 10.0 | 0.00 | 0.00 | 0.00 | 51 | 1016.5 |
| 20260831091812 | 90 | 21 | 4.0 | 9.0 | 0.00 | 0.00 | 0.00 | 50 | 1016.5 |
| 20260831090812 | 90 | 5 | 4.0 | 8.0 | 0.00 | 0.00 | 0.00 | 49 | 1016.6 |
| 20260831085812 | 90 | 21 | 4.0 | 8.0 | 0.00 | 0.00 | 0.00 | 48 | 1016.5 |
| 20260831084811 | 90 | 338 | 2.0 | 5.0 | 0.00 | 0.00 | 0.00 | 48 | 1016.6 |
| 20260831083811 | 89 | 326 | 2.0 | 6.0 | 0.00 | 0.00 | 0.00 | 50 | 1016.5 |
| 20260831082811 | 89 | 34 | 4.0 | 8.0 | 0.00 | 0.00 | 0.00 | 50 | 1016.5 |
| 20260831081811 | 88 | 55 | 3.0 | 8.0 | 0.00 | 0.00 | 0.00 | 54 | 1016.5 |
| 20260831080815 | 88 | 336 | 3.0 | 8.0 | 0.00 | 0.00 | 0.00 | 54 | 1016.5 |
| 20260831074813 | 87 | 0 | 3.0 | 7.0 | 0.00 | 0.00 | 0.00 | 60 | 1016.4 |
| 20260831073805 | 87 | 5 | 4.0 | 7.0 | 0.00 | 0.00 | 0.00 | 63 | 1016.4 |
| 20260831071821 | 87 | 273 | 3.0 | 6.0 | 0.00 | 0.00 | 0.00 | 64 | 1016.3 |
| 20260831070818 | 86 | 302 | 2.0 | 8.0 | 0.00 | 0.00 | 0.00 | 66 | 1016.3 |
| 20260831065811 | 86 | 278 | 2.0 | 4.0 | 0.00 | 0.00 | 0.00 | 69 | 1016.2 |
| 20260831064805 | 85 | 252 | 2.0 | 5.0 | 0.00 | 0.00 | 0.00 | 72 | 1016.1 |
| 20260831063805 | 85 | 291 | 2.0 | 4.0 | 0.00 | 0.00 | 0.00 | 74 | 1016.2 |
| 20260831062810 | 85 | 278 | 3.0 | 6.0 | 0.00 | 0.00 | 0.00 | 75 | 1016.2 |
| 20260831061804 | 84 | 206 | 2.0 | 5.0 | 0.00 | 0.00 | 0.00 | 76 | 1016.0 |
| 20260831060804 | 84 | 250 | 3.0 | 6.0 | 0.00 | 0.00 | 0.00 | 77 | 1016.0 |
| 20260831055802 | 83 | 205 | 3.0 | 6.0 | 0.00 | 0.00 | 0.00 | 78 | 1016.0 |
| 20260831054807 | 83 | 222 | 4.0 | 6.0 | 0.00 | 0.00 | 0.00 | 79 | 1016.0 |
| 20260831053806 | 82 | 192 | 4.0 | 7.0 | 0.00 | 0.00 | 0.00 | 79 | 1015.9 |
| 20260831052804 | 82 | 240 | 3.0 | 5.0 | 0.00 | 0.00 | 0.00 | 80 | 1016.0 |
| 20260831051803 | 82 | 212 | 4.0 | 6.0 | 0.00 | 0.00 | 0.00 | 79 | 1016.3 |
| 20260831045802 | 82 | 230 | 2.0 | 6.0 | 0.00 | 0.00 | 0.00 | 78 | 1016.2 |
| 20260831044759 | 82 | 274 | 3.0 | 4.0 | 0.00 | 0.00 | 0.00 | 78 | 1016.1 |
| 20260831043756 | 82 | 286 | 0.0 | 3.0 | 0.00 | 0.00 | 0.00 | 78 | 1016.1 |
| 20260831042759 | 82 | 325 | 0.0 | 0.0 | 0.00 | 0.00 | 0.00 | 77 | 1016.0 |
| 20260831041758 | 83 | 325 | 2.0 | 5.0 | 0.00 | 0.00 | 0.00 | 77 | 1016.0 |
| 20260831035751 | 83 | 317 | 5.0 | 9.0 | 0.00 | 0.00 | 0.00 | 76 | 1015.9 |
| 20260831034753 | 83 | 311 | 4.0 | 8.0 | 0.00 | 0.00 | 0.00 | 77 | 1016.0 |
| 20260831032752 | 83 | 349 | 6.0 | 10.0 | 0.00 | 0.00 | 0.00 | 77 | 1016.2 |
| 20260831030753 | 83 | 335 | 7.0 | 13.0 | 0.00 | 0.00 | 0.00 | 76 | 1016.4 |
| 20260831025753 | 83 | 311 | 8.0 | 13.0 | 0.00 | 0.00 | 0.00 | 77 | 1016.5 |
| 20260831023753 | 83 | 301 | 9.0 | 15.0 | 0.00 | 0.00 | 0.00 | 77 | 1016.5 |
| 20260831022750 | 83 | 314 | 9.0 | 16.0 | 0.00 | 0.00 | 0.00 | 77 | 1016.5 |
| 20260831021750 | 83 | 338 | 8.0 | 12.0 | 0.00 | 0.00 | 0.00 | 77 | 1016.5 |
| 20260831020749 | 83 | 333 | 8.0 | 14.0 | 0.00 | 0.00 | 0.00 | 78 | 1016.6 |
| 20260831015753 | 83 | 332 | 8.0 | 13.0 | 0.00 | 0.00 | 0.00 | 78 | 1016.6 |
| 20260831014749 | 84 | 324 | 9.0 | 14.0 | 0.00 | 0.00 | 0.00 | 79 | 1016.5 |
| 20260831013753 | 84 | 339 | 10.0 | 16.0 | 0.00 | 0.00 | 0.00 | 78 | 1016.6 |
| 20260831012748 | 83 | 317 | 8.0 | 15.0 | 0.00 | 0.00 | 0.00 | 79 | 1016.6 |
| 20260831011751 | 84 | 345 | 6.0 | 12.0 | 0.00 | 0.00 | 0.00 | 80 | 1016.6 |
| 20260831010747 | 84 | 329 | 7.0 | 13.0 | 0.00 | 0.00 | 0.00 | 80 | 1016.6 |
| 20260831005747 | 84 | 323 | 8.0 | 12.0 | 0.00 | 0.00 | 0.00 | 80 | 1016.5 |
| 20260831004748 | 84 | 313 | 7.0 | 13.0 | 0.00 | 0.00 | 0.00 | 79 | 1016.5 |
| 20260831003752 | 84 | 320 | 9.0 | 14.0 | 0.00 | 0.00 | 0.00 | 79 | 1016.5 |
| 20260831002748 | 84 | 338 | 8.0 | 14.0 | 0.00 | 0.00 | 0.00 | 78 | 1016.7 |
| 20260831001747 | 84 | 318 | 6.0 | 10.0 | 0.00 | 0.00 | 0.00 | 79 | 1016.7 |
| 20260831000742 | 84 | 328 | 8.0 | 13.0 | 0.00 | 0.00 | 0.00 | 78 | 1016.8 |
| 20260830235742 | 84 | 311 | 8.0 | 14.0 | 0.00 | 0.00 | 0.00 | 78 | 1016.8 |
| 20260830234743 | 84 | 314 | 7.0 | 12.0 | 0.00 | 0.00 | 0.00 | 79 | 1016.9 |
| 20260830232739 | 84 | 341 | 7.0 | 12.0 | 0.00 | 0.00 | 0.00 | 81 | 1016.6 |
| 20260830231742 | 84 | 345 | 6.0 | 10.0 | 0.00 | 0.00 | 0.00 | 82 | 1016.6 |
| 20260830230742 | 84 | 321 | 8.0 | 14.0 | 0.00 | 0.00 | 0.00 | 82 | 1016.7 |
| 20260830225739 | 84 | 323 | 6.0 | 12.0 | 0.00 | 0.00 | 0.00 | 82 | 1016.7 |
| 20260830224740 | 85 | 346 | 7.0 | 12.0 | 0.00 | 0.00 | 0.00 | 83 | 1016.5 |
| 20260830223739 | 85 | 13 | 7.0 | 12.0 | 0.00 | 0.00 | 0.00 | 83 | 1016.6 |
| 20260830222741 | 85 | 329 | 7.0 | 13.0 | 0.00 | 0.00 | 0.00 | 83 | 1016.5 |
| 20260830221741 | 85 | 325 | 5.0 | 10.0 | 0.00 | 0.00 | 0.00 | 84 | 1016.4 |
| 20260830220739 | 85 | 333 | 5.0 | 10.0 | 0.00 | 0.00 | 0.00 | 83 | 1016.4 |
| 20260830215742 | 85 | 290 | 4.0 | 9.0 | 0.00 | 0.00 | 0.00 | 83 | 1016.5 |
| 20260830213738 | 85 | 308 | 3.0 | 8.0 | 0.00 | 0.00 | 0.00 | 82 | 1016.4 |
| 20260830212738 | 85 | 324 | 4.0 | 7.0 | 0.00 | 0.00 | 0.00 | 83 | 1016.4 |
| 20260830210739 | 85 | 289 | 3.0 | 7.0 | 0.00 | 0.00 | 0.00 | 82 | 1016.3 |
| 20260830205738 | 85 | 313 | 4.0 | 8.0 | 0.00 | 0.00 | 0.00 | 82 | 1016.3 |
| 20260830201731 | 85 | 328 | 4.0 | 9.0 | 0.00 | 0.00 | 0.00 | 84 | 1016.3 |
| 20260830200734 | 85 | 327 | 4.0 | 9.0 | 0.00 | 0.00 | 0.00 | 85 | 1016.2 |
| 20260830194737 | 85 | 344 | 5.0 | 11.0 | 0.00 | 0.00 | 0.00 | 84 | 1016.1 |
| 20260830192732 | 85 | 355 | 4.0 | 9.0 | 0.00 | 0.00 | 0.00 | 84 | 1016.1 |
| 20260830191729 | 85 | 355 | 5.0 | 10.0 | 0.00 | 0.00 | 0.00 | 84 | 1016.0 |
| 20260830190729 | 86 | 5 | 5.0 | 10.0 | 0.00 | 0.00 | 0.00 | 85 | 1015.9 |
| 20260830185725 | 86 | 347 | 6.0 | 11.0 | 0.00 | 0.00 | 0.00 | 85 | 1015.9 |
| 20260830184721 | 86 | 350 | 8.0 | 14.0 | 0.00 | 0.00 | 0.00 | 84 | 1015.7 |
| 20260830183723 | 86 | 308 | 7.0 | 13.0 | 0.00 | 0.00 | 0.00 | 85 | 1015.7 |
| 20260830182722 | 86 | 349 | 8.0 | 13.0 | 0.00 | 0.00 | 0.00 | 84 | 1015.6 |
| 20260830181720 | 86 | 344 | 7.0 | 12.0 | 0.00 | 0.00 | 0.00 | 84 | 1015.6 |
| 20260830180723 | 86 | 355 | 8.0 | 12.0 | 0.00 | 0.00 | 0.00 | 84 | 1015.4 |
| 20260830175722 | 86 | 344 | 7.0 | 12.0 | 0.00 | 0.00 | 0.00 | 84 | 1015.3 |
| 20260830174721 | 86 | 345 | 6.0 | 12.0 | 0.00 | 0.00 | 0.00 | 84 | 1015.4 |
| 20260830172722 | 87 | 16 | 3.0 | 9.0 | 0.00 | 0.00 | 0.00 | 83 | 1015.2 |
| 20260830171720 | 87 | 343 | 4.0 | 11.0 | 0.00 | 0.00 | 0.00 | 83 | 1015.2 |
| 20260830165718 | 87 | 33 | 3.0 | 9.0 | 0.00 | 0.00 | 0.00 | 82 | 1015.2 |
| 20260830164720 | 87 | 355 | 3.0 | 6.0 | 0.00 | 0.00 | 0.00 | 81 | 1015.3 |
| 20260830163723 | 88 | 348 | 5.0 | 10.0 | 0.00 | 0.00 | 0.00 | 79 | 1015.3 |
| 20260830162715 | 88 | 27 | 4.0 | 10.0 | 0.00 | 0.00 | 0.00 | 78 | 1015.3 |
| 20260830160713 | 88 | 267 | 4.0 | 7.0 | 0.00 | 0.00 | 0.00 | 81 | 1015.3 |
| 20260830155715 | 88 | 342 | 5.0 | 10.0 | 0.00 | 0.00 | 0.00 | 80 | 1015.3 |
| 20260830154713 | 89 | 337 | 4.0 | 11.0 | 0.00 | 0.00 | 0.00 | 80 | 1015.3 |
| 20260830153713 | 89 | 286 | 6.0 | 11.0 | 0.00 | 0.00 | 0.00 | 80 | 1015.3 |
| 20260830152725 | 90 | 327 | 8.0 | 13.0 | 0.00 | 0.00 | 0.00 | 79 | 1015.2 |
| 20260830151713 | 91 | 319 | 8.0 | 14.0 | 0.00 | 0.00 | 0.00 | 77 | 1015.1 |
| 20260830150715 | 91 | 324 | 9.0 | 13.0 | 0.00 | 0.00 | 0.00 | 73 | 1015.1 |
| 20260830145720 | 92 | 329 | 9.0 | 12.0 | 0.00 | 0.00 | 0.00 | 69 | 1015.1 |
| 20260830143708 | 94 | 344 | 6.0 | 11.0 | 0.00 | 0.00 | 0.00 | 59 | 1015.1 |
| 20260830142709 | 95 | 355 | 6.0 | 14.0 | 0.00 | 0.00 | 0.00 | 53 | 1015.2 |
| 20260830141712 | 96 | 326 | 7.0 | 13.0 | 0.00 | 0.00 | 0.00 | 45 | 1015.1 |
| 20260830140710 | 97 | 294 | 6.0 | 11.0 | 0.00 | 0.00 | 0.00 | 41 | 1015.0 |
| 20260830135707 | 97 | 267 | 6.0 | 11.0 | 0.00 | 0.00 | 0.00 | 39 | 1014.9 |
| 20260830134707 | 98 | 333 | 5.0 | 11.0 | 0.00 | 0.00 | 0.00 | 37 | 1014.8 |
| 20260830133704 | 99 | 355 | 5.0 | 11.0 | 0.00 | 0.00 | 0.00 | 35 | 1014.8 |
| 20260830132704 | 99 | 267 | 4.0 | 9.0 | 0.00 | 0.00 | 0.00 | 34 | 1014.8 |
| 20260830131705 | 98 | 290 | 6.0 | 11.0 | 0.00 | 0.00 | 0.00 | 33 | 1014.7 |
| 20260830130711 | 99 | 308 | 5.0 | 9.0 | 0.00 | 0.00 | 0.00 | 32 | 1014.8 |
| 20260830125710 | 98 | 288 | 5.0 | 9.0 | 0.00 | 0.00 | 0.00 | 32 | 1014.7 |
| 20260830124706 | 99 | 355 | 6.0 | 10.0 | 0.00 | 0.00 | 0.00 | 32 | 1014.8 |
| 20260830123705 | 100 | 318 | 5.0 | 10.0 | 0.00 | 0.00 | 0.00 | 31 | 1014.8 |
| 20260830122703 | 100 | 337 | 4.0 | 10.0 | 0.00 | 0.00 | 0.00 | 30 | 1014.8 |
| 20260830120703 | 100 | 325 | 5.0 | 11.0 | 0.00 | 0.00 | 0.00 | 30 | 1014.9 |
| 20260830115703 | 100 | 300 | 5.0 | 11.0 | 0.00 | 0.00 | 0.00 | 29 | 1015.1 |
| 20260830114708 | 102 | 338 | 3.0 | 8.0 | 0.00 | 0.00 | 0.00 | 29 | 1015.2 |
| 20260830112658 | 102 | 302 | 3.0 | 11.0 | 0.00 | 0.00 | 0.00 | 29 | 1015.1 |
| 20260830111656 | 102 | 298 | 2.0 | 9.0 | 0.00 | 0.00 | 0.00 | 29 | 1015.1 |
| 20260830110658 | 101 | 331 | 3.0 | 7.0 | 0.00 | 0.00 | 0.00 | 30 | 1015.1 |
| 20260830105656 | 100 | 275 | 1.0 | 5.0 | 0.00 | 0.00 | 0.00 | 32 | 1015.2 |
| 20260830104656 | 98 | 269 | 2.0 | 5.0 | 0.00 | 0.00 | 0.00 | 36 | 1015.3 |